Terminal Aerodrome Forecast
Issued by NWS

Home | Current Version | Previous Version | Text Only | Print | Product List | Glossary On
Versions: 1 2 3 4 5 6 7 8 9 10 11 12 13 14 15 16
000
FTUS45 KGJT 282340 AAD
TAFTEX
TAF AMD
KTEX 282340Z 2900/2924 29010G18KT P6SM VCTS SCT100CB SCT150
     FM290300 13005KT P6SM FEW250
     FM291700 29008G18KT P6SM VCTS FEW100CB SCT200=

USA.gov is the U.S. government's official web portal to all federal, state and local government web resources and services.